createdAt,value
2022-08-08T00:01:17.226Z,101935.97
2022-08-08T00:03:56.773Z,101949.28
2022-08-08T00:06:35.267Z,101951.03
2022-08-08T00:09:08.125Z,101940.88
2022-08-08T00:11:46.704Z,101942.13
2022-08-08T00:14:48.649Z,101947.97
2022-08-08T00:17:35.297Z,101938.00
2022-08-08T00:20:19.860Z,101935.81
2022-08-08T00:22:49.987Z,101932.22
2022-08-08T00:25:22.139Z,101927.19
2022-08-08T00:27:52.096Z,101934.44
2022-08-08T00:30:20.338Z,101932.34
2022-08-08T00:32:53.124Z,101936.19
2022-08-08T00:35:30.375Z,101940.00
2022-08-08T00:38:31.426Z,101934.31
2022-08-08T00:41:45.074Z,101933.97
2022-08-08T00:44:44.089Z,101931.97
2022-08-08T00:48:05.443Z,101926.91
2022-08-08T00:51:16.080Z,101929.88
2022-08-08T00:54:04.524Z,101924.53
2022-08-08T00:57:04.436Z,101922.81
2022-08-08T00:59:57.677Z,101918.38
2022-08-08T01:03:16.160Z,101923.72
2022-08-08T01:06:08.562Z,101918.97
2022-08-08T01:08:58.472Z,101924.19
2022-08-08T01:11:53.307Z,101937.63
2022-08-08T01:14:53.747Z,101916.50
2022-08-08T01:17:52.115Z,101928.59
2022-08-08T01:20:36.987Z,101929.41
2022-08-08T01:24:06.176Z,101939.22
2022-08-08T01:26:40.167Z,101987.69
2022-08-08T01:29:35.421Z,101876.28
2022-08-08T01:32:28.475Z,101853.34
2022-08-08T01:35:29.706Z,102082.00
2022-08-08T01:38:41.160Z,102033.66
2022-08-08T01:41:16.179Z,102035.66
2022-08-08T01:43:50.908Z,102011.09
2022-08-08T01:46:40.300Z,101980.25
2022-08-08T01:49:14.269Z,101980.50
2022-08-08T01:52:43.863Z,101975.34
2022-08-08T01:55:25.381Z,101975.22
2022-08-08T01:58:12.286Z,101978.09
2022-08-08T02:00:57.262Z,101966.25
2022-08-08T02:03:50.568Z,101981.19
2022-08-08T02:06:36.677Z,101963.06
2022-08-08T02:09:17.938Z,101959.00
2022-08-08T02:11:58.674Z,101973.97
2022-08-08T02:14:35.397Z,101979.94
2022-08-08T02:17:26.860Z,102007.47
2022-08-08T02:21:00.034Z,101954.97
2022-08-08T02:23:05.485Z,102003.72
2022-08-08T02:25:46.937Z,102010.31
2022-08-08T02:28:19.004Z,101984.09
2022-08-08T02:30:58.171Z,102011.22
2022-08-08T02:34:08.280Z,102020.53
2022-08-08T02:36:40.736Z,101950.16
2022-08-08T02:39:58.585Z,102009.81
2022-08-08T02:44:37.593Z,102025.41
2022-08-08T02:46:25.118Z,102030.13
2022-08-08T02:49:27.707Z,101982.19
2022-08-08T02:52:38.918Z,101985.94
2022-08-08T02:55:19.738Z,101994.31
2022-08-08T02:58:26.608Z,101978.63
2022-08-08T03:01:32.698Z,101990.41
2022-08-08T03:05:08.133Z,101989.19
2022-08-08T03:07:59.400Z,101998.88
2022-08-08T03:10:44.437Z,101997.22
2022-08-08T03:15:58.627Z,101995.59
2022-08-08T03:16:39.980Z,102021.63
2022-08-08T03:19:40.159Z,102012.34
2022-08-08T03:22:48.203Z,102003.41
2022-08-08T03:25:14.819Z,102043.72
2022-08-08T03:27:56.542Z,102054.06
2022-08-08T03:30:25.732Z,102073.69
2022-08-08T03:33:55.355Z,102062.00
2022-08-08T03:35:59.480Z,102069.72
2022-08-08T03:38:56.983Z,102079.19
2022-08-08T03:42:12.420Z,102090.34
2022-08-08T03:44:05.001Z,102066.03
2022-08-08T03:46:32.901Z,102082.97
2022-08-08T03:49:09.328Z,102099.63
2022-08-08T03:51:53.323Z,102097.50
2022-08-08T03:54:51.612Z,102081.38
2022-08-08T03:58:09.518Z,102106.91
2022-08-08T04:00:11.531Z,102100.81
2022-08-08T04:02:47.748Z,102107.09
2022-08-08T04:05:28.033Z,102076.25
2022-08-08T04:07:56.811Z,102133.75
2022-08-08T04:10:25.819Z,102154.88
2022-08-08T04:13:03.882Z,102150.63
2022-08-08T04:15:55.127Z,102174.28
2022-08-08T04:18:31.983Z,102148.69
2022-08-08T04:20:59.870Z,102177.59
2022-08-08T04:23:33.117Z,102156.06
2022-08-08T04:26:16.210Z,102127.81
2022-08-08T04:28:45.256Z,102186.47
2022-08-08T04:31:57.182Z,102192.16
2022-08-08T04:34:01.398Z,102152.09
2022-08-08T04:36:28.984Z,102139.03
2022-08-08T04:39:47.712Z,102198.97
2022-08-08T04:41:46.633Z,102199.88
2022-08-08T04:44:19.662Z,102156.72
2022-08-08T04:46:48.712Z,102216.31
2022-08-08T04:49:20.152Z,102187.50
2022-08-08T04:51:57.664Z,102220.28
2022-08-08T04:54:38.886Z,102163.34
2022-08-08T04:57:09.291Z,102155.03
2022-08-08T04:59:42.071Z,102157.72
2022-08-08T05:02:10.356Z,102151.91
2022-08-08T05:04:41.819Z,102160.41
2022-08-08T05:07:12.346Z,102165.16
2022-08-08T05:09:43.001Z,102156.88
2022-08-08T05:12:20.887Z,102150.44
2022-08-08T05:14:52.276Z,102151.63
2022-08-08T05:17:20.979Z,102158.09
2022-08-08T05:20:12.686Z,102148.75
2022-08-08T05:22:36.945Z,102157.38
2022-08-08T05:25:05.374Z,102155.25
2022-08-08T05:27:41.077Z,102159.59
2022-08-08T05:30:12.058Z,102155.56
2022-08-08T05:32:40.472Z,102161.09
2022-08-08T05:35:13.446Z,102157.47
2022-08-08T05:37:52.707Z,102169.66
2022-08-08T05:40:28.708Z,102171.03
2022-08-08T05:43:03.135Z,102196.66
2022-08-08T05:45:55.150Z,102191.06
2022-08-08T05:48:34.658Z,102192.53
2022-08-08T05:51:13.527Z,102157.56
2022-08-08T05:54:24.516Z,102146.94
2022-08-08T05:56:31.582Z,102274.09
2022-08-08T05:59:04.775Z,102165.63
2022-08-08T06:01:51.271Z,102072.53
2022-08-08T06:04:24.922Z,102056.78
2022-08-08T06:06:53.841Z,102341.59
2022-08-08T06:10:00.004Z,102210.03
2022-08-08T06:12:18.388Z,102176.16
2022-08-08T06:14:47.899Z,102173.06
2022-08-08T06:17:19.209Z,102157.44
2022-08-08T06:19:48.492Z,102146.84
2022-08-08T06:25:04.075Z,102113.56
2022-08-08T06:27:38.797Z,102139.13
2022-08-08T06:30:11.802Z,102135.56
2022-08-08T06:32:52.692Z,102134.91
2022-08-08T06:36:07.780Z,102148.13
2022-08-08T06:38:14.459Z,102165.44
2022-08-08T06:40:48.372Z,102157.97
2022-08-08T06:43:30.813Z,102155.75
2022-08-08T06:46:02.764Z,102153.34
2022-08-08T06:48:32.191Z,102152.56
2022-08-08T06:51:04.308Z,102157.13
2022-08-08T06:53:39.020Z,102148.22
2022-08-08T06:56:08.811Z,102167.53
2022-08-08T06:58:37.014Z,102150.56
2022-08-08T07:01:11.532Z,102147.41
2022-08-08T07:04:40.606Z,102141.69
2022-08-08T07:06:53.809Z,102147.69
2022-08-08T07:09:27.131Z,102151.47
2022-08-08T07:11:56.155Z,102140.59
2022-08-08T07:14:28.265Z,102147.94
2022-08-08T07:17:03.199Z,102150.00
2022-08-08T07:19:44.438Z,102156.25
2022-08-08T07:22:18.831Z,102159.50
2022-08-08T07:24:53.184Z,102162.59
2022-08-08T07:27:35.243Z,102159.94
2022-08-08T07:30:19.616Z,102168.22
2022-08-08T07:32:49.560Z,102165.94
2022-08-08T07:35:19.074Z,102172.19
2022-08-08T07:38:05.053Z,102164.50
2022-08-08T07:40:35.077Z,102162.13
2022-08-08T07:43:09.061Z,102165.56
2022-08-08T07:46:04.886Z,102174.03
2022-08-08T07:48:25.261Z,102168.59
2022-08-08T07:51:00.968Z,102178.19
2022-08-08T07:54:01.643Z,102168.31
2022-08-08T07:56:36.368Z,102175.34
2022-08-08T07:59:08.851Z,102163.19
2022-08-08T08:02:33.020Z,102166.19
2022-08-08T08:04:39.994Z,102176.75
2022-08-08T08:07:10.934Z,102173.69
2022-08-08T08:09:41.686Z,102179.91
2022-08-08T08:12:11.176Z,102182.78
2022-08-08T08:15:04.205Z,102189.81
2022-08-08T08:17:36.305Z,102191.53
2022-08-08T08:20:12.210Z,102192.88
2022-08-08T08:22:43.783Z,102187.75
2022-08-08T08:25:11.387Z,102193.97
2022-08-08T08:27:39.200Z,102203.47
2022-08-08T08:30:15.330Z,102190.47
2022-08-08T08:32:51.202Z,102193.50
2022-08-08T08:35:29.373Z,102186.75
2022-08-08T08:38:16.101Z,102188.34
2022-08-08T08:40:48.701Z,102180.41
2022-08-08T08:43:19.742Z,102183.06
2022-08-08T08:45:49.618Z,102186.59
2022-08-08T08:48:25.927Z,102174.00
2022-08-08T08:50:55.656Z,102173.50
2022-08-08T08:53:54.141Z,102196.38
2022-08-08T08:56:14.927Z,102193.34
2022-08-08T08:58:50.238Z,102193.34
2022-08-08T09:01:20.101Z,102185.41
2022-08-08T09:03:51.508Z,102193.28
2022-08-08T09:06:28.562Z,102194.38
2022-08-08T09:09:05.389Z,102193.00
2022-08-08T09:11:47.485Z,102185.25
2022-08-08T09:14:26.232Z,102194.84
2022-08-08T09:16:55.472Z,102194.09
2022-08-08T09:22:00.294Z,102194.47
2022-08-08T09:22:12.271Z,102206.91
2022-08-08T09:24:42.849Z,102206.38
2022-08-08T09:27:20.086Z,102212.66
2022-08-08T09:29:56.909Z,102202.41
2022-08-08T09:32:37.276Z,102217.13
2022-08-08T09:35:10.505Z,102201.00
2022-08-08T09:38:01.937Z,102210.84
2022-08-08T09:41:06.059Z,102205.00
2022-08-08T09:44:05.063Z,102213.16
2022-08-08T09:46:31.260Z,102198.38
2022-08-08T09:49:18.055Z,102210.09
2022-08-08T09:52:06.079Z,102206.88
2022-08-08T09:54:38.662Z,102201.38
2022-08-08T09:57:16.008Z,102205.06
2022-08-08T10:00:02.080Z,102193.03
2022-08-08T10:02:36.361Z,102194.84
2022-08-08T10:05:14.340Z,102185.66
2022-08-08T10:07:47.896Z,102184.63
2022-08-08T10:10:15.736Z,102192.47
2022-08-08T10:12:53.051Z,102189.47
2022-08-08T10:15:24.294Z,102186.31
2022-08-08T10:18:07.369Z,102201.47
2022-08-08T10:20:51.217Z,102209.66
2022-08-08T10:23:43.405Z,102212.97
2022-08-08T10:26:30.979Z,102206.88
2022-08-08T10:29:11.430Z,102195.41
2022-08-08T10:31:57.860Z,102325.16
2022-08-08T10:34:28.766Z,102331.91
2022-08-08T10:36:59.820Z,102319.88
2022-08-08T10:39:43.493Z,102318.41
2022-08-08T10:42:20.879Z,102311.47
2022-08-08T10:44:50.381Z,102327.13
2022-08-08T10:47:21.060Z,102321.25
2022-08-08T10:50:01.855Z,102322.28
2022-08-08T10:52:32.694Z,102312.53
2022-08-08T10:55:06.227Z,102313.34
2022-08-08T10:57:50.154Z,102307.69
2022-08-08T11:00:26.199Z,102311.44
2022-08-08T11:02:55.137Z,102327.75
2022-08-08T11:05:23.477Z,102314.94
2022-08-08T11:08:34.416Z,102321.41
2022-08-08T11:10:41.230Z,102382.38
2022-08-08T11:16:00.999Z,102226.34
2022-08-08T11:18:35.982Z,102206.81
2022-08-08T11:21:08.938Z,102207.44
2022-08-08T11:23:42.435Z,102189.56
2022-08-08T11:26:19.162Z,102177.13
2022-08-08T11:28:50.280Z,102177.38
2022-08-08T11:31:21.125Z,102173.13
2022-08-08T11:34:01.580Z,102174.38
2022-08-08T11:36:32.219Z,102179.59
2022-08-08T11:38:59.972Z,102180.97
2022-08-08T11:41:32.245Z,102182.97
2022-08-08T11:44:01.162Z,102181.19
2022-08-08T11:46:31.617Z,102163.78
2022-08-08T11:48:59.910Z,102158.72
2022-08-08T11:51:38.226Z,102173.22
2022-08-08T11:54:27.353Z,102164.38
2022-08-08T11:56:58.018Z,102162.47
2022-08-08T11:59:58.783Z,102162.91
2022-08-08T12:02:32.254Z,102161.88
2022-08-08T12:05:02.531Z,102158.47
2022-08-08T12:07:30.232Z,102153.38
2022-08-08T12:10:11.267Z,102151.91
2022-08-08T12:12:46.011Z,102154.78
2022-08-08T12:15:27.573Z,102138.69
2022-08-08T12:17:56.527Z,102163.69
2022-08-08T12:20:25.264Z,102159.66
2022-08-08T12:22:54.364Z,102144.03
2022-08-08T12:25:30.939Z,102133.63
2022-08-08T12:28:15.420Z,102140.41
2022-08-08T12:30:50.065Z,102131.78
2022-08-08T12:33:20.536Z,102134.22
2022-08-08T12:35:52.483Z,102128.44
2022-08-08T12:38:31.335Z,102130.13
2022-08-08T12:41:05.770Z,102138.03
2022-08-08T12:43:59.908Z,102138.81
2022-08-08T12:46:28.774Z,102141.69
2022-08-08T12:49:24.989Z,102135.06
2022-08-08T12:51:58.569Z,102154.16
2022-08-08T12:54:29.927Z,102132.50
2022-08-08T12:57:01.572Z,102144.44
2022-08-08T12:59:45.047Z,102146.19
2022-08-08T13:02:28.659Z,102149.91
2022-08-08T13:05:00.019Z,102144.06
2022-08-08T13:08:03.518Z,102145.06
2022-08-08T13:10:28.091Z,102137.97
2022-08-08T13:13:06.091Z,102126.53
2022-08-08T13:15:36.741Z,102131.84
2022-08-08T13:18:11.225Z,102125.91
2022-08-08T13:20:48.808Z,102131.34
2022-08-08T13:23:35.913Z,102140.34
2022-08-08T13:26:13.272Z,102117.97
2022-08-08T13:28:42.915Z,102126.69
2022-08-08T13:31:16.633Z,102127.16
2022-08-08T13:33:47.270Z,102132.94
2022-08-08T13:36:25.985Z,102138.00
2022-08-08T13:38:54.478Z,102116.25
2022-08-08T13:41:22.541Z,102115.78
2022-08-08T13:43:51.005Z,102120.00
2022-08-08T13:46:26.780Z,102117.50
2022-08-08T13:50:33.730Z,102118.22
2022-08-08T13:51:55.944Z,102111.50
2022-08-08T13:54:29.483Z,102108.81
2022-08-08T13:57:04.337Z,102115.38
2022-08-08T13:59:40.573Z,102103.06
2022-08-08T14:02:20.754Z,102093.84
2022-08-08T14:04:57.180Z,102090.13
2022-08-08T14:07:29.944Z,102101.50
2022-08-08T14:10:05.688Z,102096.78
2022-08-08T14:12:43.823Z,102089.03
2022-08-08T14:15:24.689Z,102088.91
2022-08-08T14:18:34.820Z,102099.44
2022-08-08T14:20:55.766Z,102105.91
2022-08-08T14:24:06.816Z,102097.81
2022-08-08T14:26:25.184Z,102088.59
2022-08-08T14:28:57.794Z,102095.19
2022-08-08T14:32:06.224Z,102112.28
2022-08-08T14:34:19.095Z,102080.84
2022-08-08T14:36:54.500Z,102093.00
2022-08-08T14:39:24.711Z,102091.22
2022-08-08T14:41:59.410Z,102088.81
2022-08-08T14:44:35.172Z,102088.69
2022-08-08T14:47:16.662Z,102081.41
2022-08-08T14:50:06.333Z,102077.81
2022-08-08T14:52:54.228Z,102079.81
2022-08-08T14:55:35.229Z,102078.41
2022-08-08T14:58:11.788Z,102082.41
2022-08-08T15:00:45.636Z,102074.06
2022-08-08T15:03:16.953Z,102064.16
2022-08-08T15:05:52.504Z,102081.97
2022-08-08T15:08:34.475Z,102082.66
2022-08-08T15:11:06.412Z,102074.88
2022-08-08T15:13:40.581Z,102078.66
2022-08-08T15:16:22.484Z,102079.06
2022-08-08T15:18:51.929Z,102074.06
2022-08-08T15:21:20.777Z,102065.69
2022-08-08T15:23:51.290Z,102066.53
2022-08-08T15:26:21.023Z,102071.16
2022-08-08T15:28:54.427Z,102066.34
2022-08-08T15:32:02.586Z,102078.56
2022-08-08T15:34:29.790Z,102062.41
2022-08-08T15:36:57.861Z,102074.50
2022-08-08T15:39:25.969Z,102065.94
2022-08-08T15:41:55.258Z,102077.19
2022-08-08T15:44:22.980Z,102072.06
2022-08-08T15:46:51.265Z,102064.56
2022-08-08T15:49:20.747Z,102059.44
2022-08-08T15:51:50.082Z,102073.00
2022-08-08T15:54:18.826Z,102071.06
2022-08-08T15:57:08.831Z,102074.38
2022-08-08T16:00:05.502Z,102058.16
2022-08-08T16:02:30.575Z,102075.72
2022-08-08T16:04:59.343Z,102069.91
2022-08-08T16:07:39.560Z,102071.94
2022-08-08T16:13:02.825Z,102069.63
2022-08-08T16:13:28.630Z,102070.53
2022-08-08T16:15:57.577Z,102072.28
2022-08-08T16:18:27.799Z,102066.00
2022-08-08T16:21:00.246Z,102203.41
2022-08-08T16:23:31.864Z,102199.75
2022-08-08T16:26:05.020Z,102262.25
2022-08-08T16:28:46.316Z,102225.78
2022-08-08T16:31:14.051Z,102221.72
2022-08-08T16:33:41.971Z,102227.34
2022-08-08T16:36:33.982Z,102174.84
2022-08-08T16:39:09.836Z,102152.47
2022-08-08T16:41:51.260Z,102132.97
2022-08-08T16:44:27.832Z,102142.44
2022-08-08T16:47:16.473Z,102133.91
2022-08-08T16:49:44.212Z,102122.47
2022-08-08T16:55:02.596Z,102125.78
2022-08-08T16:55:28.076Z,102131.88
2022-08-08T16:58:14.563Z,102132.84
2022-08-08T17:00:36.164Z,102124.03
2022-08-08T17:03:04.225Z,102137.25
2022-08-08T17:05:44.791Z,102119.22
2022-08-08T17:08:13.938Z,102127.00
2022-08-08T17:10:57.580Z,102133.84
2022-08-08T17:13:41.099Z,102125.22
2022-08-08T17:16:16.414Z,102127.69
2022-08-08T17:18:45.415Z,102128.00
2022-08-08T17:21:13.690Z,102128.16
2022-08-08T17:24:01.653Z,102135.19
2022-08-08T17:26:29.808Z,102130.81
2022-08-08T17:28:58.695Z,102129.38
2022-08-08T17:31:44.769Z,102145.31
2022-08-08T17:34:49.637Z,102139.53
2022-08-08T17:37:03.321Z,102132.06
2022-08-08T17:40:03.062Z,102132.63
2022-08-08T17:42:19.613Z,102136.03
2022-08-08T17:44:49.124Z,102134.31
2022-08-08T17:47:24.110Z,102151.63
2022-08-08T17:50:02.732Z,102136.66
2022-08-08T17:52:31.218Z,102143.41
2022-08-08T17:55:05.060Z,102135.94
2022-08-08T17:57:35.487Z,102132.00
2022-08-08T18:00:04.611Z,102141.84
2022-08-08T18:02:44.513Z,102152.47
2022-08-08T18:05:23.327Z,102328.59
2022-08-08T18:08:02.813Z,102209.66
2022-08-08T18:10:31.971Z,102195.41
2022-08-08T18:13:03.962Z,102190.72
2022-08-08T18:15:35.210Z,102164.50
2022-08-08T18:18:09.696Z,102164.25
2022-08-08T18:20:59.171Z,102170.25
2022-08-08T18:23:27.649Z,102160.38
2022-08-08T18:25:56.414Z,102164.25
2022-08-08T18:28:29.261Z,102166.16
2022-08-08T18:31:02.874Z,102169.72
2022-08-08T18:34:10.390Z,102167.50
2022-08-08T18:36:24.917Z,102161.53
2022-08-08T18:38:53.508Z,102162.34
2022-08-08T18:41:51.107Z,102168.69
2022-08-08T18:44:12.666Z,102162.38
2022-08-08T18:46:56.225Z,102172.41
2022-08-08T18:49:32.640Z,102176.91
2022-08-08T18:52:08.951Z,102184.72
2022-08-08T18:54:59.516Z,102180.72
2022-08-08T18:57:36.830Z,102184.88
2022-08-08T19:00:15.483Z,102180.38
2022-08-08T19:02:48.380Z,102191.78
2022-08-08T19:05:31.736Z,102186.13
2022-08-08T19:08:00.187Z,102189.09
2022-08-08T19:10:28.440Z,102189.22
2022-08-08T19:12:57.797Z,102195.34
2022-08-08T19:15:34.045Z,102195.72
2022-08-08T19:18:33.331Z,102187.53
2022-08-08T19:20:52.134Z,102202.69
2022-08-08T19:23:21.482Z,102202.94
2022-08-08T19:26:20.215Z,102206.69
2022-08-08T19:28:41.397Z,102206.19
2022-08-08T19:31:09.988Z,102223.72
2022-08-08T19:33:51.674Z,102219.34
2022-08-08T19:36:28.717Z,102234.78
2022-08-08T19:38:56.500Z,102249.59
2022-08-08T19:41:29.301Z,102233.97
2022-08-08T19:44:03.029Z,102223.28
2022-08-08T19:46:33.148Z,102227.53
2022-08-08T19:49:01.466Z,102227.31
2022-08-08T19:51:34.442Z,102240.63
2022-08-08T19:54:07.859Z,102242.72
2022-08-08T19:56:40.168Z,102238.31
2022-08-08T19:59:08.837Z,102252.72
2022-08-08T20:02:01.595Z,102242.94
2022-08-08T20:04:24.404Z,102240.81
2022-08-08T20:06:56.846Z,102250.84
2022-08-08T20:09:25.409Z,102235.97
2022-08-08T20:11:57.840Z,102247.22
2022-08-08T20:14:34.485Z,102247.22
2022-08-08T20:17:03.583Z,102247.66
2022-08-08T20:19:34.334Z,102237.44
2022-08-08T20:22:13.474Z,102240.44
2022-08-08T20:24:48.706Z,102251.44
2022-08-08T20:27:20.434Z,102245.78
2022-08-08T20:30:00.986Z,102246.47
2022-08-08T20:32:30.011Z,102248.34
2022-08-08T20:35:02.163Z,102249.91
2022-08-08T20:37:46.660Z,102245.88
2022-08-08T20:40:38.649Z,102251.28
2022-08-08T20:43:16.489Z,102256.44
2022-08-08T20:45:58.088Z,102257.91
2022-08-08T20:48:31.449Z,102251.47
2022-08-08T20:50:59.168Z,102258.69
2022-08-08T20:54:00.514Z,102255.59
2022-08-08T20:56:16.576Z,102253.34
2022-08-08T20:58:47.706Z,102251.72
2022-08-08T21:01:19.763Z,102246.13
2022-08-08T21:03:55.109Z,102259.19
2022-08-08T21:06:52.922Z,102260.22
2022-08-08T21:09:16.605Z,102253.31
2022-08-08T21:11:51.781Z,102255.91
2022-08-08T21:14:33.383Z,102251.34
2022-08-08T21:17:03.063Z,102249.16
2022-08-08T21:19:44.314Z,102265.03
2022-08-08T21:22:15.213Z,102263.53
2022-08-08T21:24:52.765Z,102262.75
2022-08-08T21:28:05.830Z,102261.28
2022-08-08T21:30:19.343Z,102236.19
2022-08-08T21:32:52.147Z,102253.00
2022-08-08T21:36:14.505Z,102245.19
2022-08-08T21:38:16.391Z,102254.38
2022-08-08T21:40:55.733Z,102260.16
2022-08-08T21:43:25.275Z,102264.06
2022-08-08T21:48:05.671Z,102264.47
2022-08-08T21:48:49.272Z,102262.81
2022-08-08T21:52:36.123Z,102262.31
2022-08-08T21:54:33.972Z,102267.72
2022-08-08T21:56:57.383Z,102271.78
2022-08-08T21:59:43.879Z,102261.72
2022-08-08T22:02:15.961Z,102269.69
2022-08-08T22:04:43.908Z,102267.97
2022-08-08T22:07:11.499Z,102266.31
2022-08-08T22:09:40.982Z,102265.00
2022-08-08T22:12:15.054Z,102273.59
2022-08-08T22:14:47.375Z,102277.66
2022-08-08T22:17:18.386Z,102273.34
2022-08-08T22:20:12.420Z,102273.28
2022-08-08T22:22:37.931Z,102272.34
2022-08-08T22:25:19.778Z,102281.31
2022-08-08T22:28:04.231Z,102268.34
2022-08-08T22:30:33.472Z,102277.34
2022-08-08T22:33:01.569Z,102276.47
2022-08-08T22:36:04.611Z,102281.94
2022-08-08T22:38:17.648Z,102273.81
2022-08-08T22:40:48.361Z,102279.53
2022-08-08T22:43:18.994Z,102268.66
2022-08-08T22:45:52.669Z,102270.28
2022-08-08T22:48:21.624Z,102270.44
2022-08-08T22:50:50.228Z,102280.59
2022-08-08T22:54:30.277Z,102269.69
2022-08-08T22:56:06.990Z,102274.09
2022-08-08T22:58:35.954Z,102273.44
2022-08-08T23:01:16.467Z,102279.91
2022-08-08T23:03:56.728Z,102287.31
2022-08-08T23:06:25.170Z,102290.97
2022-08-08T23:08:55.045Z,102284.22
2022-08-08T23:11:31.058Z,102287.88
2022-08-08T23:14:16.948Z,102296.13
2022-08-08T23:16:47.035Z,102296.13
2022-08-08T23:19:16.016Z,102289.38
2022-08-08T23:21:45.837Z,102294.69
2022-08-08T23:24:22.519Z,102294.00
2022-08-08T23:26:55.296Z,102298.53
2022-08-08T23:29:27.110Z,102296.81
2022-08-08T23:31:58.007Z,102293.00
2022-08-08T23:34:25.908Z,102288.75
2022-08-08T23:36:58.197Z,102296.78
2022-08-08T23:39:26.523Z,102299.66
2022-08-08T23:42:00.544Z,102304.66
2022-08-08T23:44:31.870Z,102317.56
2022-08-08T23:49:03.471Z,102327.16
2022-08-08T23:49:49.663Z,102312.09
2022-08-08T23:52:31.186Z,102319.41
2022-08-08T23:55:07.471Z,102316.63
2022-08-08T23:57:52.958Z,102312.25
